sensor_id;sensor_type;location;lat;lon;timestamp;P1;durP1;ratioP1;P2;durP2;ratioP2
11711;SDS011;5912;51.034;6.984;2023-12-22T00:02:09;4.77;;;0.90;;
11711;SDS011;5912;51.034;6.984;2023-12-22T00:04:35;1.93;;;0.50;;
11711;SDS011;5912;51.034;6.984;2023-12-22T00:07:00;2.60;;;0.50;;
11711;SDS011;5912;51.034;6.984;2023-12-22T00:09:25;1.63;;;0.63;;
11711;SDS011;5912;51.034;6.984;2023-12-22T00:11:50;3.50;;;0.73;;
11711;SDS011;5912;51.034;6.984;2023-12-22T00:14:16;3.33;;;0.73;;
11711;SDS011;5912;51.034;6.984;2023-12-22T00:16:41;1.73;;;0.70;;
11711;SDS011;5912;51.034;6.984;2023-12-22T00:19:07;1.70;;;0.70;;
11711;SDS011;5912;51.034;6.984;2023-12-22T00:21:32;3.47;;;1.17;;
11711;SDS011;5912;51.034;6.984;2023-12-22T00:23:57;3.00;;;0.90;;
11711;SDS011;5912;51.034;6.984;2023-12-22T00:26:23;2.17;;;1.00;;
11711;SDS011;5912;51.034;6.984;2023-12-22T00:28:48;2.50;;;0.80;;
11711;SDS011;5912;51.034;6.984;2023-12-22T00:31:14;3.87;;;0.80;;
11711;SDS011;5912;51.034;6.984;2023-12-22T00:33:39;4.50;;;0.77;;
11711;SDS011;5912;51.034;6.984;2023-12-22T00:36:04;8.33;;;0.80;;
11711;SDS011;5912;51.034;6.984;2023-12-22T00:38:30;5.53;;;0.80;;
11711;SDS011;5912;51.034;6.984;2023-12-22T00:40:56;3.90;;;1.00;;
11711;SDS011;5912;51.034;6.984;2023-12-22T00:43:21;3.87;;;0.80;;
11711;SDS011;5912;51.034;6.984;2023-12-22T00:45:47;3.70;;;0.60;;
11711;SDS011;5912;51.034;6.984;2023-12-22T00:48:12;8.00;;;1.20;;
11711;SDS011;5912;51.034;6.984;2023-12-22T00:50:37;3.13;;;0.80;;
11711;SDS011;5912;51.034;6.984;2023-12-22T00:53:03;4.90;;;0.90;;
11711;SDS011;5912;51.034;6.984;2023-12-22T00:55:28;4.73;;;1.30;;
11711;SDS011;5912;51.034;6.984;2023-12-22T00:57:53;5.17;;;1.00;;
11711;SDS011;5912;51.034;6.984;2023-12-22T01:00:19;6.43;;;0.80;;
11711;SDS011;5912;51.034;6.984;2023-12-22T01:02:44;4.30;;;0.77;;
11711;SDS011;5912;51.034;6.984;2023-12-22T01:05:09;2.37;;;0.80;;
11711;SDS011;5912;51.034;6.984;2023-12-22T01:07:35;6.60;;;1.20;;
11711;SDS011;5912;51.034;6.984;2023-12-22T01:10:01;5.60;;;1.13;;
11711;SDS011;5912;51.034;6.984;2023-12-22T01:12:27;2.87;;;0.90;;
11711;SDS011;5912;51.034;6.984;2023-12-22T01:14:54;5.77;;;1.13;;
11711;SDS011;5912;51.034;6.984;2023-12-22T01:17:20;4.40;;;0.73;;
11711;SDS011;5912;51.034;6.984;2023-12-22T01:19:45;4.20;;;0.90;;
11711;SDS011;5912;51.034;6.984;2023-12-22T01:22:10;5.10;;;1.13;;
11711;SDS011;5912;51.034;6.984;2023-12-22T01:24:36;3.13;;;0.90;;
11711;SDS011;5912;51.034;6.984;2023-12-22T01:27:04;2.67;;;0.80;;
11711;SDS011;5912;51.034;6.984;2023-12-22T01:29:30;4.27;;;0.70;;
11711;SDS011;5912;51.034;6.984;2023-12-22T01:31:55;3.07;;;0.67;;
11711;SDS011;5912;51.034;6.984;2023-12-22T01:34:20;5.40;;;1.30;;
11711;SDS011;5912;51.034;6.984;2023-12-22T01:36:46;4.37;;;0.90;;
11711;SDS011;5912;51.034;6.984;2023-12-22T01:39:11;2.83;;;0.50;;
11711;SDS011;5912;51.034;6.984;2023-12-22T01:41:36;4.07;;;1.00;;
11711;SDS011;5912;51.034;6.984;2023-12-22T01:44:02;6.00;;;1.20;;
11711;SDS011;5912;51.034;6.984;2023-12-22T01:46:27;2.97;;;0.83;;
11711;SDS011;5912;51.034;6.984;2023-12-22T01:48:53;4.87;;;1.37;;
11711;SDS011;5912;51.034;6.984;2023-12-22T01:51:18;3.33;;;0.80;;
11711;SDS011;5912;51.034;6.984;2023-12-22T01:53:44;4.77;;;1.03;;
11711;SDS011;5912;51.034;6.984;2023-12-22T01:56:11;3.67;;;0.90;;
11711;SDS011;5912;51.034;6.984;2023-12-22T01:58:36;3.23;;;0.97;;
11711;SDS011;5912;51.034;6.984;2023-12-22T02:01:02;4.17;;;0.87;;
11711;SDS011;5912;51.034;6.984;2023-12-22T02:03:29;3.93;;;1.13;;
11711;SDS011;5912;51.034;6.984;2023-12-22T02:05:55;5.67;;;1.27;;
11711;SDS011;5912;51.034;6.984;2023-12-22T02:08:21;5.37;;;1.63;;
11711;SDS011;5912;51.034;6.984;2023-12-22T02:10:48;5.00;;;1.00;;
11711;SDS011;5912;51.034;6.984;2023-12-22T02:13:13;6.10;;;1.43;;
11711;SDS011;5912;51.034;6.984;2023-12-22T02:15:39;6.13;;;1.27;;
11711;SDS011;5912;51.034;6.984;2023-12-22T02:18:12;4.83;;;1.20;;
11711;SDS011;5912;51.034;6.984;2023-12-22T02:20:41;5.37;;;1.10;;
11711;SDS011;5912;51.034;6.984;2023-12-22T02:23:09;4.47;;;0.97;;
11711;SDS011;5912;51.034;6.984;2023-12-22T02:25:34;5.63;;;1.00;;
11711;SDS011;5912;51.034;6.984;2023-12-22T02:28:07;4.80;;;1.37;;
11711;SDS011;5912;51.034;6.984;2023-12-22T02:30:37;7.37;;;1.67;;
11711;SDS011;5912;51.034;6.984;2023-12-22T02:33:07;7.07;;;1.60;;
11711;SDS011;5912;51.034;6.984;2023-12-22T02:35:36;8.93;;;1.20;;
11711;SDS011;5912;51.034;6.984;2023-12-22T02:38:03;3.57;;;1.33;;
11711;SDS011;5912;51.034;6.984;2023-12-22T02:40:30;4.33;;;1.20;;
11711;SDS011;5912;51.034;6.984;2023-12-22T02:42:56;7.57;;;1.37;;
11711;SDS011;5912;51.034;6.984;2023-12-22T02:45:21;6.10;;;1.20;;
11711;SDS011;5912;51.034;6.984;2023-12-22T02:47:47;6.57;;;1.33;;
11711;SDS011;5912;51.034;6.984;2023-12-22T02:50:13;5.97;;;1.20;;
11711;SDS011;5912;51.034;6.984;2023-12-22T02:52:39;8.23;;;1.70;;
11711;SDS011;5912;51.034;6.984;2023-12-22T02:55:05;5.97;;;1.30;;
11711;SDS011;5912;51.034;6.984;2023-12-22T02:57:31;7.70;;;1.30;;
11711;SDS011;5912;51.034;6.984;2023-12-22T02:59:56;5.07;;;1.10;;
11711;SDS011;5912;51.034;6.984;2023-12-22T03:02:22;4.37;;;1.23;;
11711;SDS011;5912;51.034;6.984;2023-12-22T03:04:47;10.40;;;1.57;;
11711;SDS011;5912;51.034;6.984;2023-12-22T03:07:13;6.77;;;1.30;;
11711;SDS011;5912;51.034;6.984;2023-12-22T03:09:39;8.47;;;1.10;;
11711;SDS011;5912;51.034;6.984;2023-12-22T03:12:05;4.87;;;1.20;;
11711;SDS011;5912;51.034;6.984;2023-12-22T03:14:32;6.53;;;1.50;;
11711;SDS011;5912;51.034;6.984;2023-12-22T03:17:01;8.60;;;2.47;;
11711;SDS011;5912;51.034;6.984;2023-12-22T03:19:28;4.43;;;1.47;;
11711;SDS011;5912;51.034;6.984;2023-12-22T03:21:53;8.70;;;1.80;;
11711;SDS011;5912;51.034;6.984;2023-12-22T03:24:19;7.53;;;1.43;;
11711;SDS011;5912;51.034;6.984;2023-12-22T03:29:28;10.43;;;2.00;;
11711;SDS011;5912;51.034;6.984;2023-12-22T03:31:53;7.57;;;1.60;;
11711;SDS011;5912;51.034;6.984;2023-12-22T03:34:19;5.90;;;1.53;;
11711;SDS011;5912;51.034;6.984;2023-12-22T03:36:44;7.17;;;1.27;;
11711;SDS011;5912;51.034;6.984;2023-12-22T03:39:13;5.17;;;1.67;;
11711;SDS011;5912;51.034;6.984;2023-12-22T03:41:39;8.83;;;1.43;;
11711;SDS011;5912;51.034;6.984;2023-12-22T03:44:04;6.47;;;1.67;;
11711;SDS011;5912;51.034;6.984;2023-12-22T03:46:29;6.00;;;1.50;;
11711;SDS011;5912;51.034;6.984;2023-12-22T03:48:55;7.07;;;1.73;;
11711;SDS011;5912;51.034;6.984;2023-12-22T03:51:20;6.30;;;1.40;;
11711;SDS011;5912;51.034;6.984;2023-12-22T03:53:45;6.73;;;1.33;;
11711;SDS011;5912;51.034;6.984;2023-12-22T03:56:11;8.20;;;1.87;;
11711;SDS011;5912;51.034;6.984;2023-12-22T03:58:36;8.77;;;1.40;;
11711;SDS011;5912;51.034;6.984;2023-12-22T04:01:02;8.20;;;1.60;;
11711;SDS011;5912;51.034;6.984;2023-12-22T04:03:28;6.63;;;1.70;;
11711;SDS011;5912;51.034;6.984;2023-12-22T04:05:53;13.07;;;1.90;;
11711;SDS011;5912;51.034;6.984;2023-12-22T04:08:19;6.33;;;1.77;;
11711;SDS011;5912;51.034;6.984;2023-12-22T04:10:45;10.93;;;1.50;;
11711;SDS011;5912;51.034;6.984;2023-12-22T04:13:11;8.20;;;1.80;;
11711;SDS011;5912;51.034;6.984;2023-12-22T04:15:36;8.73;;;1.70;;
11711;SDS011;5912;51.034;6.984;2023-12-22T04:18:02;8.20;;;1.80;;
11711;SDS011;5912;51.034;6.984;2023-12-22T04:20:27;10.77;;;2.20;;
11711;SDS011;5912;51.034;6.984;2023-12-22T04:22:52;8.23;;;1.70;;
11711;SDS011;5912;51.034;6.984;2023-12-22T04:25:18;9.07;;;1.67;;
11711;SDS011;5912;51.034;6.984;2023-12-22T04:27:43;10.60;;;1.50;;
11711;SDS011;5912;51.034;6.984;2023-12-22T04:30:09;7.67;;;1.93;;
11711;SDS011;5912;51.034;6.984;2023-12-22T04:32:34;14.50;;;1.60;;
11711;SDS011;5912;51.034;6.984;2023-12-22T04:34:59;4.27;;;1.50;;
11711;SDS011;5912;51.034;6.984;2023-12-22T04:37:25;8.87;;;2.20;;
11711;SDS011;5912;51.034;6.984;2023-12-22T04:39:51;7.33;;;1.60;;
11711;SDS011;5912;51.034;6.984;2023-12-22T04:42:16;9.67;;;2.10;;
11711;SDS011;5912;51.034;6.984;2023-12-22T04:44:42;6.53;;;1.63;;
11711;SDS011;5912;51.034;6.984;2023-12-22T04:47:08;8.13;;;1.70;;
11711;SDS011;5912;51.034;6.984;2023-12-22T04:49:33;7.70;;;1.77;;
11711;SDS011;5912;51.034;6.984;2023-12-22T04:51:58;7.40;;;1.63;;
11711;SDS011;5912;51.034;6.984;2023-12-22T04:54:23;5.00;;;1.37;;
11711;SDS011;5912;51.034;6.984;2023-12-22T04:56:49;4.83;;;1.47;;
11711;SDS011;5912;51.034;6.984;2023-12-22T04:59:14;8.90;;;2.60;;
11711;SDS011;5912;51.034;6.984;2023-12-22T05:01:39;7.03;;;1.70;;
11711;SDS011;5912;51.034;6.984;2023-12-22T05:04:05;10.53;;;1.97;;
11711;SDS011;5912;51.034;6.984;2023-12-22T05:06:30;6.67;;;1.73;;
11711;SDS011;5912;51.034;6.984;2023-12-22T05:08:56;8.37;;;1.50;;
11711;SDS011;5912;51.034;6.984;2023-12-22T05:11:21;4.97;;;1.70;;
11711;SDS011;5912;51.034;6.984;2023-12-22T05:13:47;5.80;;;1.80;;
11711;SDS011;5912;51.034;6.984;2023-12-22T05:16:12;6.60;;;1.93;;
11711;SDS011;5912;51.034;6.984;2023-12-22T05:18:43;9.10;;;1.90;;
11711;SDS011;5912;51.034;6.984;2023-12-22T05:21:11;9.07;;;1.93;;
11711;SDS011;5912;51.034;6.984;2023-12-22T05:23:37;7.03;;;2.10;;
11711;SDS011;5912;51.034;6.984;2023-12-22T05:26:02;13.53;;;2.20;;
11711;SDS011;5912;51.034;6.984;2023-12-22T05:28:28;7.60;;;1.83;;
11711;SDS011;5912;51.034;6.984;2023-12-22T05:30:53;9.57;;;1.83;;
11711;SDS011;5912;51.034;6.984;2023-12-22T05:33:19;6.00;;;1.80;;
11711;SDS011;5912;51.034;6.984;2023-12-22T05:35:44;11.97;;;1.67;;
11711;SDS011;5912;51.034;6.984;2023-12-22T05:38:09;8.20;;;1.90;;
11711;SDS011;5912;51.034;6.984;2023-12-22T05:40:35;8.47;;;1.73;;
11711;SDS011;5912;51.034;6.984;2023-12-22T05:43:00;8.87;;;2.43;;
11711;SDS011;5912;51.034;6.984;2023-12-22T05:45:25;8.53;;;1.63;;
11711;SDS011;5912;51.034;6.984;2023-12-22T05:47:51;14.47;;;2.50;;
11711;SDS011;5912;51.034;6.984;2023-12-22T05:50:16;8.13;;;2.00;;
11711;SDS011;5912;51.034;6.984;2023-12-22T05:52:42;10.57;;;1.90;;
11711;SDS011;5912;51.034;6.984;2023-12-22T05:55:08;5.97;;;1.60;;
11711;SDS011;5912;51.034;6.984;2023-12-22T05:57:34;6.63;;;1.73;;
11711;SDS011;5912;51.034;6.984;2023-12-22T05:59:59;7.50;;;1.77;;
11711;SDS011;5912;51.034;6.984;2023-12-22T06:02:25;8.37;;;2.10;;
11711;SDS011;5912;51.034;6.984;2023-12-22T06:04:50;9.33;;;1.60;;
11711;SDS011;5912;51.034;6.984;2023-12-22T06:07:16;7.83;;;1.97;;
11711;SDS011;5912;51.034;6.984;2023-12-22T06:09:41;9.23;;;2.47;;
11711;SDS011;5912;51.034;6.984;2023-12-22T06:12:06;8.77;;;1.77;;
11711;SDS011;5912;51.034;6.984;2023-12-22T06:14:32;7.03;;;1.27;;
11711;SDS011;5912;51.034;6.984;2023-12-22T06:16:59;10.10;;;1.70;;
11711;SDS011;5912;51.034;6.984;2023-12-22T06:19:25;13.43;;;2.90;;
11711;SDS011;5912;51.034;6.984;2023-12-22T06:21:53;9.00;;;1.53;;
11711;SDS011;5912;51.034;6.984;2023-12-22T06:24:18;7.53;;;1.57;;
11711;SDS011;5912;51.034;6.984;2023-12-22T06:26:44;7.53;;;1.60;;
11711;SDS011;5912;51.034;6.984;2023-12-22T06:29:09;10.40;;;2.07;;
11711;SDS011;5912;51.034;6.984;2023-12-22T06:31:35;9.30;;;2.00;;
11711;SDS011;5912;51.034;6.984;2023-12-22T06:34:00;9.10;;;1.83;;
11711;SDS011;5912;51.034;6.984;2023-12-22T06:36:32;10.43;;;2.00;;
11711;SDS011;5912;51.034;6.984;2023-12-22T06:38:57;14.57;;;2.07;;
11711;SDS011;5912;51.034;6.984;2023-12-22T06:43:58;11.03;;;1.80;;
11711;SDS011;5912;51.034;6.984;2023-12-22T06:46:26;8.13;;;1.80;;
11711;SDS011;5912;51.034;6.984;2023-12-22T06:48:51;5.40;;;1.90;;
11711;SDS011;5912;51.034;6.984;2023-12-22T06:51:22;8.40;;;1.70;;
11711;SDS011;5912;51.034;6.984;2023-12-22T06:53:51;6.67;;;1.60;;
11711;SDS011;5912;51.034;6.984;2023-12-22T06:56:21;10.93;;;2.00;;
11711;SDS011;5912;51.034;6.984;2023-12-22T06:58:48;7.30;;;2.03;;
11711;SDS011;5912;51.034;6.984;2023-12-22T07:03:58;5.53;;;1.63;;
11711;SDS011;5912;51.034;6.984;2023-12-22T07:06:28;5.03;;;1.80;;
11711;SDS011;5912;51.034;6.984;2023-12-22T07:11:36;5.20;;;1.40;;
11711;SDS011;5912;51.034;6.984;2023-12-22T07:14:02;8.73;;;1.87;;
11711;SDS011;5912;51.034;6.984;2023-12-22T07:16:27;5.07;;;1.80;;
11711;SDS011;5912;51.034;6.984;2023-12-22T07:18:52;8.07;;;2.07;;
11711;SDS011;5912;51.034;6.984;2023-12-22T07:21:18;5.07;;;1.47;;
11711;SDS011;5912;51.034;6.984;2023-12-22T07:23:43;4.03;;;1.30;;
11711;SDS011;5912;51.034;6.984;2023-12-22T07:26:09;6.30;;;1.20;;
11711;SDS011;5912;51.034;6.984;2023-12-22T07:28:34;5.13;;;1.60;;
11711;SDS011;5912;51.034;6.984;2023-12-22T07:31:00;6.03;;;1.77;;
11711;SDS011;5912;51.034;6.984;2023-12-22T07:33:25;3.47;;;0.90;;
11711;SDS011;5912;51.034;6.984;2023-12-22T07:35:50;3.93;;;1.10;;
11711;SDS011;5912;51.034;6.984;2023-12-22T07:38:16;5.40;;;1.20;;
11711;SDS011;5912;51.034;6.984;2023-12-22T07:40:41;4.27;;;1.03;;
11711;SDS011;5912;51.034;6.984;2023-12-22T07:43:06;5.23;;;1.70;;
11711;SDS011;5912;51.034;6.984;2023-12-22T07:45:33;5.50;;;1.50;;
11711;SDS011;5912;51.034;6.984;2023-12-22T07:47:58;4.77;;;1.00;;
11711;SDS011;5912;51.034;6.984;2023-12-22T07:50:23;3.80;;;1.20;;
11711;SDS011;5912;51.034;6.984;2023-12-22T07:52:48;5.27;;;1.40;;
11711;SDS011;5912;51.034;6.984;2023-12-22T07:55:15;9.23;;;2.00;;
11711;SDS011;5912;51.034;6.984;2023-12-22T07:57:40;2.37;;;1.27;;
11711;SDS011;5912;51.034;6.984;2023-12-22T08:00:06;6.47;;;1.80;;
11711;SDS011;5912;51.034;6.984;2023-12-22T08:02:34;6.07;;;2.03;;
11711;SDS011;5912;51.034;6.984;2023-12-22T08:04:59;9.00;;;2.60;;
11711;SDS011;5912;51.034;6.984;2023-12-22T08:07:24;7.73;;;2.33;;
11711;SDS011;5912;51.034;6.984;2023-12-22T08:09:50;9.43;;;2.57;;
11711;SDS011;5912;51.034;6.984;2023-12-22T08:12:15;9.73;;;2.40;;
11711;SDS011;5912;51.034;6.984;2023-12-22T08:14:40;10.93;;;2.83;;
11711;SDS011;5912;51.034;6.984;2023-12-22T08:17:06;8.93;;;2.10;;
11711;SDS011;5912;51.034;6.984;2023-12-22T08:19:31;12.63;;;2.47;;
11711;SDS011;5912;51.034;6.984;2023-12-22T08:21:56;7.43;;;2.23;;
11711;SDS011;5912;51.034;6.984;2023-12-22T08:24:21;9.93;;;3.00;;
11711;SDS011;5912;51.034;6.984;2023-12-22T08:26:47;13.43;;;3.10;;
11711;SDS011;5912;51.034;6.984;2023-12-22T08:29:13;11.20;;;3.10;;
11711;SDS011;5912;51.034;6.984;2023-12-22T08:31:38;14.60;;;3.27;;
11711;SDS011;5912;51.034;6.984;2023-12-22T08:34:04;14.07;;;3.77;;
11711;SDS011;5912;51.034;6.984;2023-12-22T08:36:30;13.67;;;3.23;;
11711;SDS011;5912;51.034;6.984;2023-12-22T08:38:55;23.10;;;3.93;;
11711;SDS011;5912;51.034;6.984;2023-12-22T08:41:21;19.67;;;3.60;;
11711;SDS011;5912;51.034;6.984;2023-12-22T08:43:46;16.43;;;3.77;;
11711;SDS011;5912;51.034;6.984;2023-12-22T08:46:11;21.87;;;4.33;;
11711;SDS011;5912;51.034;6.984;2023-12-22T08:48:37;18.97;;;4.00;;
11711;SDS011;5912;51.034;6.984;2023-12-22T08:51:03;19.93;;;3.93;;
11711;SDS011;5912;51.034;6.984;2023-12-22T08:53:29;17.63;;;4.40;;
11711;SDS011;5912;51.034;6.984;2023-12-22T08:55:58;19.47;;;4.03;;
11711;SDS011;5912;51.034;6.984;2023-12-22T08:58:24;26.10;;;4.07;;
11711;SDS011;5912;51.034;6.984;2023-12-22T09:00:49;20.97;;;3.97;;
11711;SDS011;5912;51.034;6.984;2023-12-22T09:03:14;21.83;;;4.47;;
11711;SDS011;5912;51.034;6.984;2023-12-22T09:05:40;21.70;;;3.77;;
11711;SDS011;5912;51.034;6.984;2023-12-22T09:08:05;18.40;;;3.87;;
11711;SDS011;5912;51.034;6.984;2023-12-22T09:10:31;16.90;;;3.60;;
11711;SDS011;5912;51.034;6.984;2023-12-22T09:12:57;15.13;;;3.57;;
11711;SDS011;5912;51.034;6.984;2023-12-22T09:15:22;23.55;;;4.15;;
11711;SDS011;5912;51.034;6.984;2023-12-22T09:17:48;14.13;;;3.37;;
11711;SDS011;5912;51.034;6.984;2023-12-22T09:20:14;15.33;;;3.90;;
11711;SDS011;5912;51.034;6.984;2023-12-22T09:22:39;12.02;;;3.30;;
11711;SDS011;5912;51.034;6.984;2023-12-22T09:25:04;17.25;;;3.55;;
11711;SDS011;5912;51.034;6.984;2023-12-22T09:27:30;17.02;;;3.83;;
11711;SDS011;5912;51.034;6.984;2023-12-22T09:29:56;12.97;;;3.67;;
11711;SDS011;5912;51.034;6.984;2023-12-22T09:32:21;13.85;;;3.15;;
11711;SDS011;5912;51.034;6.984;2023-12-22T09:34:46;11.40;;;3.15;;
11711;SDS011;5912;51.034;6.984;2023-12-22T09:37:12;13.40;;;3.10;;
11711;SDS011;5912;51.034;6.984;2023-12-22T09:39:37;13.93;;;3.27;;
11711;SDS011;5912;51.034;6.984;2023-12-22T09:42:02;13.07;;;2.88;;
11711;SDS011;5912;51.034;6.984;2023-12-22T09:44:31;17.55;;;3.80;;
11711;SDS011;5912;51.034;6.984;2023-12-22T09:47:00;10.98;;;3.05;;
11711;SDS011;5912;51.034;6.984;2023-12-22T09:49:29;10.85;;;3.28;;
11711;SDS011;5912;51.034;6.984;2023-12-22T09:51:55;10.60;;;2.92;;
11711;SDS011;5912;51.034;6.984;2023-12-22T09:54:22;12.10;;;2.50;;
11711;SDS011;5912;51.034;6.984;2023-12-22T09:56:48;14.60;;;2.70;;
11711;SDS011;5912;51.034;6.984;2023-12-22T09:59:15;12.52;;;3.28;;
11711;SDS011;5912;51.034;6.984;2023-12-22T10:01:43;17.70;;;3.47;;
11711;SDS011;5912;51.034;6.984;2023-12-22T10:04:13;13.43;;;3.05;;
11711;SDS011;5912;51.034;6.984;2023-12-22T10:06:39;9.73;;;2.53;;
11711;SDS011;5912;51.034;6.984;2023-12-22T10:09:05;10.88;;;2.20;;
11711;SDS011;5912;51.034;6.984;2023-12-22T10:11:32;7.03;;;2.40;;
11711;SDS011;5912;51.034;6.984;2023-12-22T10:13:59;16.83;;;3.17;;
11711;SDS011;5912;51.034;6.984;2023-12-22T10:16:26;8.18;;;2.25;;
11711;SDS011;5912;51.034;6.984;2023-12-22T10:18:52;8.18;;;2.28;;
11711;SDS011;5912;51.034;6.984;2023-12-22T10:21:18;12.15;;;2.38;;
11711;SDS011;5912;51.034;6.984;2023-12-22T10:23:43;8.48;;;1.80;;
11711;SDS011;5912;51.034;6.984;2023-12-22T10:26:12;6.40;;;1.92;;
11711;SDS011;5912;51.034;6.984;2023-12-22T10:28:37;7.85;;;1.85;;
11711;SDS011;5912;51.034;6.984;2023-12-22T10:31:03;4.50;;;1.83;;
11711;SDS011;5912;51.034;6.984;2023-12-22T10:33:31;9.13;;;2.28;;
11711;SDS011;5912;51.034;6.984;2023-12-22T10:35:58;5.07;;;1.50;;
11711;SDS011;5912;51.034;6.984;2023-12-22T10:38:24;6.00;;;1.52;;
11711;SDS011;5912;51.034;6.984;2023-12-22T10:40:49;3.78;;;1.38;;
11711;SDS011;5912;51.034;6.984;2023-12-22T10:43:15;5.95;;;1.80;;
11711;SDS011;5912;51.034;6.984;2023-12-22T10:45:40;5.40;;;1.52;;
11711;SDS011;5912;51.034;6.984;2023-12-22T10:48:06;3.70;;;1.20;;
11711;SDS011;5912;51.034;6.984;2023-12-22T10:50:32;3.88;;;1.42;;
11711;SDS011;5912;51.034;6.984;2023-12-22T10:52:57;3.90;;;1.60;;
11711;SDS011;5912;51.034;6.984;2023-12-22T10:55:22;3.80;;;1.17;;
11711;SDS011;5912;51.034;6.984;2023-12-22T10:57:48;3.55;;;1.45;;
11711;SDS011;5912;51.034;6.984;2023-12-22T11:00:16;2.85;;;1.17;;
11711;SDS011;5912;51.034;6.984;2023-12-22T11:02:44;4.50;;;1.65;;
11711;SDS011;5912;51.034;6.984;2023-12-22T11:05:13;3.55;;;1.10;;
11711;SDS011;5912;51.034;6.984;2023-12-22T11:07:41;3.33;;;1.30;;
11711;SDS011;5912;51.034;6.984;2023-12-22T11:10:13;3.85;;;1.40;;
11711;SDS011;5912;51.034;6.984;2023-12-22T11:12:43;3.03;;;1.23;;
11711;SDS011;5912;51.034;6.984;2023-12-22T11:15:09;3.33;;;1.40;;
11711;SDS011;5912;51.034;6.984;2023-12-22T11:17:38;1.98;;;1.15;;
11711;SDS011;5912;51.034;6.984;2023-12-22T11:20:08;2.63;;;1.10;;
11711;SDS011;5912;51.034;6.984;2023-12-22T11:22:34;2.42;;;1.17;;
11711;SDS011;5912;51.034;6.984;2023-12-22T11:25:01;1.92;;;1.02;;
11711;SDS011;5912;51.034;6.984;2023-12-22T11:27:27;1.90;;;0.90;;
11711;SDS011;5912;51.034;6.984;2023-12-22T11:29:53;1.98;;;1.17;;
11711;SDS011;5912;51.034;6.984;2023-12-22T11:32:20;2.92;;;1.17;;
11711;SDS011;5912;51.034;6.984;2023-12-22T11:34:46;3.00;;;1.10;;
11711;SDS011;5912;51.034;6.984;2023-12-22T11:37:12;1.92;;;1.13;;
11711;SDS011;5912;51.034;6.984;2023-12-22T11:39:42;1.80;;;0.88;;
11711;SDS011;5912;51.034;6.984;2023-12-22T11:42:08;4.55;;;1.67;;
11711;SDS011;5912;51.034;6.984;2023-12-22T11:44:37;6.57;;;1.30;;
11711;SDS011;5912;51.034;6.984;2023-12-22T11:47:06;2.92;;;1.30;;
11711;SDS011;5912;51.034;6.984;2023-12-22T11:49:33;3.50;;;1.30;;
11711;SDS011;5912;51.034;6.984;2023-12-22T11:52:14;2.95;;;1.20;;
11711;SDS011;5912;51.034;6.984;2023-12-22T11:54:47;3.60;;;1.02;;
11711;SDS011;5912;51.034;6.984;2023-12-22T11:59:52;2.97;;;1.00;;
11711;SDS011;5912;51.034;6.984;2023-12-22T12:02:18;2.60;;;1.10;;
11711;SDS011;5912;51.034;6.984;2023-12-22T12:04:43;3.80;;;1.10;;
11711;SDS011;5912;51.034;6.984;2023-12-22T12:10:01;3.42;;;1.33;;
11711;SDS011;5912;51.034;6.984;2023-12-22T12:12:27;2.47;;;0.90;;
11711;SDS011;5912;51.034;6.984;2023-12-22T12:14:52;2.58;;;1.10;;
11711;SDS011;5912;51.034;6.984;2023-12-22T12:17:22;3.75;;;1.20;;
11711;SDS011;5912;51.034;6.984;2023-12-22T12:19:48;3.50;;;1.10;;
11711;SDS011;5912;51.034;6.984;2023-12-22T12:22:14;4.95;;;1.00;;
11711;SDS011;5912;51.034;6.984;2023-12-22T12:24:39;1.35;;;0.82;;
11711;SDS011;5912;51.034;6.984;2023-12-22T12:27:06;4.07;;;1.20;;
11711;SDS011;5912;51.034;6.984;2023-12-22T12:29:32;2.35;;;1.23;;
11711;SDS011;5912;51.034;6.984;2023-12-22T12:32:05;3.75;;;0.88;;
11711;SDS011;5912;51.034;6.984;2023-12-22T12:34:32;2.67;;;0.77;;
11711;SDS011;5912;51.034;6.984;2023-12-22T12:36:58;2.78;;;0.88;;
11711;SDS011;5912;51.034;6.984;2023-12-22T12:39:25;2.20;;;0.75;;
11711;SDS011;5912;51.034;6.984;2023-12-22T12:41:56;2.75;;;0.82;;
11711;SDS011;5912;51.034;6.984;2023-12-22T12:44:25;3.45;;;1.20;;
11711;SDS011;5912;51.034;6.984;2023-12-22T12:46:51;2.03;;;0.77;;
11711;SDS011;5912;51.034;6.984;2023-12-22T12:49:17;1.60;;;1.02;;
11711;SDS011;5912;51.034;6.984;2023-12-22T12:51:44;3.58;;;0.98;;
11711;SDS011;5912;51.034;6.984;2023-12-22T12:54:11;3.15;;;0.77;;
11711;SDS011;5912;51.034;6.984;2023-12-22T12:56:43;2.45;;;1.10;;
11711;SDS011;5912;51.034;6.984;2023-12-22T12:59:10;2.90;;;0.70;;
11711;SDS011;5912;51.034;6.984;2023-12-22T13:04:05;2.85;;;0.90;;
11711;SDS011;5912;51.034;6.984;2023-12-22T13:06:31;4.72;;;0.90;;
11711;SDS011;5912;51.034;6.984;2023-12-22T13:08:56;4.20;;;0.85;;
11711;SDS011;5912;51.034;6.984;2023-12-22T13:11:22;4.55;;;1.10;;
11711;SDS011;5912;51.034;6.984;2023-12-22T13:13:49;2.08;;;0.80;;
11711;SDS011;5912;51.034;6.984;2023-12-22T13:16:18;3.55;;;0.80;;
11711;SDS011;5912;51.034;6.984;2023-12-22T13:18:44;1.73;;;0.70;;
11711;SDS011;5912;51.034;6.984;2023-12-22T13:21:10;1.50;;;0.77;;
11711;SDS011;5912;51.034;6.984;2023-12-22T13:23:48;1.80;;;0.73;;
11711;SDS011;5912;51.034;6.984;2023-12-22T13:26:32;2.15;;;0.95;;
11711;SDS011;5912;51.034;6.984;2023-12-22T13:28:57;2.58;;;1.00;;
11711;SDS011;5912;51.034;6.984;2023-12-22T13:31:24;2.58;;;0.70;;
11711;SDS011;5912;51.034;6.984;2023-12-22T13:33:49;2.25;;;0.70;;
11711;SDS011;5912;51.034;6.984;2023-12-22T13:36:15;1.73;;;0.80;;
11711;SDS011;5912;51.034;6.984;2023-12-22T13:38:44;4.25;;;1.10;;
11711;SDS011;5912;51.034;6.984;2023-12-22T13:41:11;5.90;;;1.15;;
11711;SDS011;5912;51.034;6.984;2023-12-22T13:43:36;2.38;;;0.80;;
11711;SDS011;5912;51.034;6.984;2023-12-22T13:46:02;3.60;;;0.82;;
11711;SDS011;5912;51.034;6.984;2023-12-22T13:48:28;3.17;;;0.90;;
11711;SDS011;5912;51.034;6.984;2023-12-22T13:50:55;5.93;;;0.95;;
11711;SDS011;5912;51.034;6.984;2023-12-22T13:53:24;3.35;;;0.80;;
11711;SDS011;5912;51.034;6.984;2023-12-22T13:55:56;6.70;;;1.30;;
11711;SDS011;5912;51.034;6.984;2023-12-22T13:58:25;4.22;;;0.98;;
11711;SDS011;5912;51.034;6.984;2023-12-22T14:00:51;4.75;;;0.77;;
11711;SDS011;5912;51.034;6.984;2023-12-22T14:03:16;5.57;;;0.98;;
11711;SDS011;5912;51.034;6.984;2023-12-22T14:05:42;3.88;;;0.90;;
11711;SDS011;5912;51.034;6.984;2023-12-22T14:08:08;2.60;;;0.80;;
11711;SDS011;5912;51.034;6.984;2023-12-22T14:10:34;3.85;;;0.90;;
11711;SDS011;5912;51.034;6.984;2023-12-22T14:16:20;2.55;;;1.15;;
11711;SDS011;5912;51.034;6.984;2023-12-22T14:18:46;2.55;;;0.80;;
11711;SDS011;5912;51.034;6.984;2023-12-22T14:21:11;3.83;;;0.90;;
11711;SDS011;5912;51.034;6.984;2023-12-22T14:23:36;4.07;;;1.60;;
11711;SDS011;5912;51.034;6.984;2023-12-22T14:26:02;4.82;;;1.02;;
11711;SDS011;5912;51.034;6.984;2023-12-22T14:28:27;3.28;;;1.05;;
11711;SDS011;5912;51.034;6.984;2023-12-22T14:30:53;2.20;;;1.17;;
11711;SDS011;5912;51.034;6.984;2023-12-22T14:33:18;5.35;;;1.30;;
11711;SDS011;5912;51.034;6.984;2023-12-22T14:35:43;2.70;;;1.00;;
11711;SDS011;5912;51.034;6.984;2023-12-22T14:38:08;3.53;;;1.05;;
11711;SDS011;5912;51.034;6.984;2023-12-22T14:40:34;1.35;;;0.88;;
11711;SDS011;5912;51.034;6.984;2023-12-22T14:42:59;2.78;;;0.88;;
11711;SDS011;5912;51.034;6.984;2023-12-22T14:45:26;2.63;;;0.98;;
11711;SDS011;5912;51.034;6.984;2023-12-22T14:47:52;5.43;;;1.00;;
11711;SDS011;5912;51.034;6.984;2023-12-22T14:50:18;4.90;;;1.23;;
11711;SDS011;5912;51.034;6.984;2023-12-22T14:52:43;5.35;;;1.30;;
11711;SDS011;5912;51.034;6.984;2023-12-22T14:55:09;6.97;;;1.10;;
11711;SDS011;5912;51.034;6.984;2023-12-22T14:57:35;5.60;;;1.20;;
11711;SDS011;5912;51.034;6.984;2023-12-22T15:00:00;4.43;;;1.02;;
11711;SDS011;5912;51.034;6.984;2023-12-22T15:02:25;4.18;;;1.00;;
11711;SDS011;5912;51.034;6.984;2023-12-22T15:04:51;2.65;;;0.85;;
11711;SDS011;5912;51.034;6.984;2023-12-22T15:07:17;4.57;;;0.85;;
11711;SDS011;5912;51.034;6.984;2023-12-22T15:09:44;4.85;;;0.88;;
11711;SDS011;5912;51.034;6.984;2023-12-22T15:12:09;3.97;;;0.88;;
11711;SDS011;5912;51.034;6.984;2023-12-22T15:14:36;3.83;;;0.98;;